Abraao, Brazil
Current Conditions -  °F | °C
As of 12:00 AM on Thursday 18 Dec 2014 (Local Time) from SBSC Reporting Station
Clear Clear  
Wind Chill: 72°   Ceiling: Unl
Heat Index: 72°   Visibility: 6mi
Dew Point: 61°   Wind: 2mph
Humidity: 69%   Direction: 260°W
Pressure: 29.85"   Gusts: NA
Location:  23.14°S, 44.17°W
Report Text: SBSC 180200Z 26002KT CAVOK 22/16 Q1011
Loading
Personal Weather Stations






























Interactive Weather Map New forecast layout! Learn more

10-Day Weather Forecast

Advertisements
Track Severe Weather on mobile